createdAt,value
2018-11-02T00:01:06.545Z,2.53
2018-11-02T00:03:34.139Z,2.60
2018-11-02T00:06:02.524Z,1.80
2018-11-02T00:08:30.024Z,1.90
2018-11-02T00:10:57.608Z,2.23
2018-11-02T00:13:25.163Z,2.03
2018-11-02T00:15:53.729Z,2.00
2018-11-02T00:18:21.599Z,2.40
2018-11-02T00:20:49.162Z,1.60
2018-11-02T00:23:16.745Z,2.23
2018-11-02T00:25:44.292Z,1.80
2018-11-02T00:28:11.849Z,1.97
2018-11-02T00:30:39.440Z,1.70
2018-11-02T00:33:07.003Z,2.00
2018-11-02T00:35:34.544Z,1.93
2018-11-02T00:38:02.609Z,1.60
2018-11-02T00:40:30.167Z,2.00
2018-11-02T00:42:57.731Z,1.70
2018-11-02T00:45:25.311Z,2.25
2018-11-02T00:47:52.869Z,2.47
2018-11-02T00:50:20.449Z,2.70
2018-11-02T00:52:48.784Z,3.10
2018-11-02T00:55:17.543Z,1.93
2018-11-02T00:57:45.108Z,1.70
2018-11-02T01:00:12.660Z,2.80
2018-11-02T01:02:40.252Z,2.30
2018-11-02T01:05:07.782Z,2.57
2018-11-02T01:07:35.725Z,2.60
2018-11-02T01:10:03.245Z,2.70
2018-11-02T01:12:30.811Z,2.53
2018-11-02T01:14:58.395Z,3.17
2018-11-02T01:17:25.960Z,3.07
2018-11-02T01:19:53.646Z,3.40
2018-11-02T01:22:21.135Z,4.85
2018-11-02T01:24:48.698Z,3.90
2018-11-02T01:27:16.284Z,4.33
2018-11-02T01:29:43.847Z,4.10
2018-11-02T01:32:11.406Z,4.70
2018-11-02T01:34:39.014Z,4.57
2018-11-02T01:37:07.649Z,4.37
2018-11-02T01:39:35.206Z,4.67
2018-11-02T01:42:02.793Z,5.10
2018-11-02T01:44:30.349Z,5.13
2018-11-02T01:46:57.914Z,5.53
2018-11-02T01:49:26.280Z,5.20
2018-11-02T01:51:53.831Z,7.18
2018-11-02T01:54:21.388Z,5.73
2018-11-02T01:56:48.978Z,6.43
2018-11-02T01:59:16.543Z,6.73
2018-11-02T02:01:44.107Z,5.53
2018-11-02T02:04:11.683Z,6.27
2018-11-02T02:06:40.020Z,6.30
2018-11-02T02:09:07.570Z,6.43
2018-11-02T02:11:35.187Z,6.70
2018-11-02T02:14:03.503Z,6.47
2018-11-02T02:16:31.061Z,6.90
2018-11-02T02:18:58.646Z,6.43
2018-11-02T02:21:26.208Z,7.27
2018-11-02T02:23:54.084Z,7.03
2018-11-02T02:26:22.046Z,7.03
2018-11-02T02:28:49.606Z,7.07
2018-11-02T02:31:17.175Z,7.47
2018-11-02T02:33:44.789Z,6.93
2018-11-02T02:36:12.340Z,6.80
2018-11-02T02:38:39.896Z,6.80
2018-11-02T02:41:07.589Z,6.80
2018-11-02T02:43:35.157Z,7.07
2018-11-02T02:46:02.701Z,7.37
2018-11-02T02:48:30.352Z,7.70
2018-11-02T02:50:57.912Z,7.87
2018-11-02T02:53:26.290Z,6.97
2018-11-02T02:55:53.851Z,7.90
2018-11-02T02:58:22.177Z,7.40
2018-11-02T03:00:49.776Z,7.70
2018-11-02T03:03:17.339Z,8.40
2018-11-02T03:05:44.895Z,8.50
2018-11-02T03:08:12.487Z,8.70
2018-11-02T03:10:40.850Z,8.80
2018-11-02T03:13:08.412Z,8.23
2018-11-02T03:15:35.974Z,8.60
2018-11-02T03:18:04.290Z,9.00
2018-11-02T03:20:31.890Z,8.20
2018-11-02T03:22:59.445Z,8.40
2018-11-02T03:25:27.025Z,8.53
2018-11-02T03:27:54.595Z,8.57
2018-11-02T03:30:22.925Z,8.50
2018-11-02T03:32:51.122Z,8.17
2018-11-02T03:35:18.687Z,8.43
2018-11-02T03:37:46.249Z,11.38
2018-11-02T03:40:13.833Z,9.37
2018-11-02T03:42:42.158Z,11.48
2018-11-02T03:45:09.753Z,9.23
2018-11-02T03:47:37.310Z,8.07
2018-11-02T03:50:05.444Z,8.07
2018-11-02T03:52:33.033Z,8.33
2018-11-02T03:55:00.600Z,8.23
2018-11-02T03:57:28.209Z,8.73
2018-11-02T03:59:56.550Z,8.33
2018-11-02T04:02:24.101Z,8.63
2018-11-02T04:04:51.960Z,9.03
2018-11-02T04:07:19.517Z,8.73
2018-11-02T04:09:47.132Z,9.17
2018-11-02T04:12:14.673Z,9.60
2018-11-02T04:14:42.512Z,9.00
2018-11-02T04:17:10.115Z,11.85
2018-11-02T04:19:38.449Z,9.97
2018-11-02T04:22:06.002Z,9.23
2018-11-02T04:24:33.584Z,8.80
2018-11-02T04:27:01.147Z,8.47
2018-11-02T04:29:28.748Z,9.17
2018-11-02T04:31:57.067Z,8.80
2018-11-02T04:34:24.624Z,8.40
2018-11-02T04:36:52.711Z,8.97
2018-11-02T04:39:20.280Z,9.23
2018-11-02T04:41:47.874Z,9.57
2018-11-02T04:44:15.452Z,11.68
2018-11-02T04:46:43.804Z,12.02
2018-11-02T04:49:11.363Z,8.90
2018-11-02T04:51:38.915Z,9.10
2018-11-02T04:54:06.497Z,8.23
2018-11-02T04:56:34.065Z,8.30
2018-11-02T04:59:02.403Z,8.47
2018-11-02T05:01:30.029Z,8.00
2018-11-02T05:03:57.582Z,9.03
2018-11-02T05:06:25.193Z,7.47
2018-11-02T05:08:52.736Z,9.13
2018-11-02T05:11:20.350Z,7.60
2018-11-02T05:13:47.890Z,7.97
2018-11-02T05:16:15.734Z,9.07
2018-11-02T05:18:43.301Z,8.73
2018-11-02T05:21:10.961Z,8.77
2018-11-02T05:23:38.446Z,9.23
2018-11-02T05:26:06.394Z,9.10
2018-11-02T05:28:33.958Z,9.13
2018-11-02T05:31:01.530Z,8.93
2018-11-02T05:33:29.107Z,9.07
2018-11-02T05:35:56.658Z,9.00
2018-11-02T05:38:24.218Z,10.07
2018-11-02T05:40:51.801Z,8.90
2018-11-02T05:43:20.130Z,9.77
2018-11-02T05:45:47.750Z,9.30
2018-11-02T05:48:16.073Z,9.93
2018-11-02T05:50:43.634Z,9.33
2018-11-02T05:53:11.234Z,9.30
2018-11-02T05:55:38.795Z,9.80
2018-11-02T05:58:06.380Z,13.68
2018-11-02T06:00:34.712Z,10.50
2018-11-02T06:03:02.277Z,9.23
2018-11-02T06:05:29.860Z,9.70
2018-11-02T06:07:57.509Z,9.87
2018-11-02T06:10:26.277Z,9.87
2018-11-02T06:12:53.840Z,9.53
2018-11-02T06:15:21.402Z,9.57
2018-11-02T06:17:49.063Z,10.23
2018-11-02T06:20:16.551Z,10.07
2018-11-02T06:22:44.142Z,13.35
2018-11-02T06:25:12.467Z,9.40
2018-11-02T06:27:40.050Z,9.13
2018-11-02T06:30:07.618Z,9.40
2018-11-02T06:32:35.277Z,12.20
2018-11-02T06:35:02.832Z,13.10
2018-11-02T06:37:30.398Z,13.13
2018-11-02T06:39:57.988Z,16.52
2018-11-02T06:42:26.309Z,11.07
2018-11-02T06:44:55.003Z,11.20
2018-11-02T06:47:22.464Z,11.03
2018-11-02T06:49:50.029Z,9.60
2018-11-02T06:52:17.616Z,8.77
2018-11-02T06:54:45.175Z,10.50
2018-11-02T06:57:12.787Z,10.10
2018-11-02T06:59:40.548Z,11.13
2018-11-02T07:02:07.933Z,10.23
2018-11-02T07:04:35.529Z,10.03
2018-11-02T07:07:03.921Z,9.73
2018-11-02T07:09:31.433Z,10.07
2018-11-02T07:11:59.162Z,10.77
2018-11-02T07:14:27.065Z,10.20
2018-11-02T07:16:55.450Z,10.83
2018-11-02T07:19:23.018Z,11.50
2018-11-02T07:21:50.580Z,10.43
2018-11-02T07:24:18.178Z,11.57
2018-11-02T07:26:46.512Z,12.43
2018-11-02T07:29:14.380Z,11.33
2018-11-02T07:31:41.965Z,9.60
2018-11-02T07:34:09.942Z,10.43
2018-11-02T07:36:38.083Z,10.03
2018-11-02T07:39:05.644Z,10.43
2018-11-02T07:41:33.211Z,10.20
2018-11-02T07:44:12.073Z,13.27
2018-11-02T07:46:39.625Z,15.30
2018-11-02T07:49:07.198Z,12.33
2018-11-02T07:51:35.578Z,11.20
2018-11-02T07:54:03.136Z,10.13
2018-11-02T07:56:31.466Z,10.57
2018-11-02T07:59:00.269Z,10.83
2018-11-02T08:01:27.838Z,10.60
2018-11-02T08:03:55.408Z,10.73
2018-11-02T08:06:23.003Z,11.13
2018-11-02T08:08:51.367Z,14.18
2018-11-02T08:11:19.982Z,11.87
2018-11-02T08:13:47.490Z,13.77
2018-11-02T08:16:15.059Z,15.20
2018-11-02T08:18:42.667Z,11.83
2018-11-02T08:21:10.983Z,11.53
2018-11-02T08:23:38.633Z,11.90
2018-11-02T08:26:06.215Z,16.07
2018-11-02T08:28:33.769Z,15.95
2018-11-02T08:31:02.303Z,15.30
2018-11-02T08:33:29.865Z,15.48
2018-11-02T08:35:57.431Z,12.00
2018-11-02T08:38:25.053Z,11.33
2018-11-02T08:40:52.610Z,12.87
2018-11-02T08:43:20.189Z,11.63
2018-11-02T08:45:48.570Z,11.10
2018-11-02T08:48:16.903Z,8.37
2018-11-02T08:50:44.455Z,5.30
2018-11-02T08:53:12.100Z,3.77
2018-11-02T08:55:39.694Z,4.00
2018-11-02T08:58:07.450Z,4.40
2018-11-02T09:00:35.534Z,2.63
2018-11-02T09:03:03.098Z,3.43
2018-11-02T09:05:30.657Z,4.00
2018-11-02T09:07:58.272Z,3.60
2018-11-02T09:10:25.833Z,3.43
2018-11-02T09:12:54.154Z,3.33
2018-11-02T09:15:22.137Z,4.00
2018-11-02T09:17:49.696Z,3.10
2018-11-02T09:20:17.260Z,3.20
2018-11-02T09:22:45.221Z,2.60
2018-11-02T09:25:12.778Z,4.00
2018-11-02T09:27:40.337Z,2.83
2018-11-02T09:30:08.428Z,2.57
2018-11-02T09:32:35.997Z,3.40
2018-11-02T09:35:03.563Z,3.87
2018-11-02T09:37:31.209Z,5.32
2018-11-02T09:39:59.071Z,5.10
2018-11-02T09:42:27.142Z,4.13
2018-11-02T09:44:54.654Z,3.73
2018-11-02T09:47:22.213Z,3.80
2018-11-02T09:49:50.550Z,3.70
2018-11-02T09:52:18.199Z,3.80
2018-11-02T09:54:46.516Z,3.50
2018-11-02T09:57:14.052Z,4.60
2018-11-02T09:59:41.658Z,4.53
2018-11-02T10:02:10.049Z,4.30
2018-11-02T10:04:38.167Z,4.40
2018-11-02T10:07:06.762Z,3.17
2018-11-02T10:09:34.324Z,8.53
2018-11-02T10:12:01.901Z,3.53
2018-11-02T10:14:30.020Z,2.93
2018-11-02T10:16:57.588Z,3.13
2018-11-02T10:19:25.135Z,2.43
2018-11-02T10:21:52.719Z,3.13
2018-11-02T10:24:20.272Z,3.73
2018-11-02T10:26:49.082Z,3.90
2018-11-02T10:29:16.647Z,4.30
2018-11-02T10:31:44.421Z,3.77
2018-11-02T10:34:12.028Z,4.17
2018-11-02T10:36:40.352Z,3.50
2018-11-02T10:39:07.907Z,3.83
2018-11-02T10:41:35.532Z,3.93
2018-11-02T10:44:03.095Z,4.30
2018-11-02T10:46:30.651Z,4.07
2018-11-02T10:48:58.233Z,4.43
2018-11-02T10:51:25.784Z,4.77
2018-11-02T10:53:53.339Z,4.60
2018-11-02T10:56:22.825Z,4.97
2018-11-02T10:58:50.334Z,4.60
2018-11-02T11:01:17.936Z,4.70
2018-11-02T11:03:46.891Z,5.93
2018-11-02T11:06:14.445Z,5.30
2018-11-02T11:08:41.998Z,5.63
2018-11-02T11:11:10.708Z,5.60
2018-11-02T11:13:38.694Z,5.40
2018-11-02T11:16:05.845Z,5.37
2018-11-02T11:18:33.455Z,6.35
2018-11-02T11:21:01.065Z,7.12
2018-11-02T11:23:29.324Z,6.10
2018-11-02T11:25:56.932Z,6.27
2018-11-02T11:28:25.257Z,7.47
2018-11-02T11:30:52.828Z,8.43
2018-11-02T11:33:20.477Z,9.47
2018-11-02T11:35:48.043Z,10.30
2018-11-02T11:38:15.602Z,9.67
2018-11-02T11:40:43.213Z,10.43
2018-11-02T11:43:10.768Z,9.87
2018-11-02T11:45:38.337Z,10.20
2018-11-02T11:48:05.957Z,11.30
2018-11-02T11:50:33.522Z,10.40
2018-11-02T11:53:01.093Z,10.20
2018-11-02T11:55:28.686Z,11.00
2018-11-02T11:57:56.248Z,10.07
2018-11-02T12:00:23.815Z,10.67
2018-11-02T12:02:52.675Z,10.77
2018-11-02T12:05:20.251Z,10.63
2018-11-02T12:07:47.808Z,13.65
2018-11-02T12:10:15.451Z,13.88
2018-11-02T12:12:42.999Z,11.47
2018-11-02T12:15:10.565Z,10.87
2018-11-02T12:17:38.755Z,11.63
2018-11-02T12:20:06.323Z,10.93
2018-11-02T12:22:33.887Z,15.77
2018-11-02T12:25:01.725Z,16.20
2018-11-02T12:27:29.298Z,12.80
2018-11-02T12:29:56.867Z,12.03
2018-11-02T12:32:24.474Z,12.17
2018-11-02T12:34:52.803Z,11.70
2018-11-02T12:37:20.357Z,12.23
2018-11-02T12:39:47.973Z,12.43
2018-11-02T12:42:16.302Z,12.37
2018-11-02T12:44:43.865Z,12.53
2018-11-02T12:47:11.451Z,11.97
2018-11-02T12:49:39.328Z,10.90
2018-11-02T12:52:06.636Z,13.82
2018-11-02T12:54:34.194Z,11.83
2018-11-02T12:57:01.757Z,11.00
2018-11-02T12:59:29.372Z,10.80
2018-11-02T13:01:56.938Z,11.43
2018-11-02T13:04:24.488Z,11.03
2018-11-02T13:06:52.102Z,10.60
2018-11-02T13:11:47.225Z,10.97
2018-11-02T13:14:15.632Z,10.80
2018-11-02T13:16:43.199Z,11.30
2018-11-02T13:19:10.767Z,13.90
2018-11-02T13:21:38.425Z,11.77
2018-11-02T13:24:06.685Z,11.93
2018-11-02T13:26:34.987Z,12.17
2018-11-02T13:29:02.536Z,11.57
2018-11-02T13:31:30.192Z,11.27
2018-11-02T13:33:57.704Z,11.77
2018-11-02T13:36:26.113Z,11.37
2018-11-02T13:38:53.604Z,12.57
2018-11-02T13:41:21.245Z,11.00
2018-11-02T13:43:48.933Z,11.50
2018-11-02T13:46:16.375Z,11.90
2018-11-02T13:48:44.013Z,12.13
2018-11-02T13:51:11.569Z,12.00
2018-11-02T13:53:39.185Z,12.83
2018-11-02T13:56:06.741Z,11.70
2018-11-02T13:58:34.310Z,13.07
2018-11-02T14:01:01.873Z,11.63
2018-11-02T14:03:30.427Z,12.33
2018-11-02T14:05:57.987Z,12.50
2018-11-02T14:08:25.552Z,11.57
2018-11-02T14:10:53.166Z,11.57
2018-11-02T14:13:21.500Z,11.47
2018-11-02T14:15:49.066Z,12.90
2018-11-02T14:18:16.691Z,12.40
2018-11-02T14:20:44.236Z,13.33
2018-11-02T14:23:11.805Z,13.73
2018-11-02T14:25:39.452Z,14.03
2018-11-02T14:28:07.015Z,13.83
2018-11-02T14:30:35.347Z,13.53
2018-11-02T14:33:02.948Z,14.73
2018-11-02T14:35:31.284Z,18.08
2018-11-02T14:37:58.846Z,15.30
2018-11-02T14:40:26.483Z,13.97
2018-11-02T14:42:54.058Z,14.10
2018-11-02T14:45:21.631Z,13.20
2018-11-02T14:47:49.243Z,12.57
2018-11-02T14:50:16.818Z,12.90
2018-11-02T14:52:44.393Z,11.53
2018-11-02T14:55:11.985Z,13.80
2018-11-02T14:57:39.549Z,10.63
2018-11-02T15:00:07.166Z,25.52
2018-11-02T15:02:34.727Z,15.97
2018-11-02T15:05:02.288Z,15.87
2018-11-02T15:07:30.807Z,27.00
2018-11-02T15:09:58.366Z,12.10
2018-11-02T15:12:25.927Z,39.67
2018-11-02T15:14:53.564Z,19.80
2018-11-02T15:17:21.126Z,16.23
2018-11-02T15:19:48.686Z,14.83
2018-11-02T15:22:16.278Z,12.70
2018-11-02T15:24:43.840Z,12.40
2018-11-02T15:27:11.445Z,12.27
2018-11-02T15:29:39.782Z,11.80
2018-11-02T15:32:07.351Z,12.87
2018-11-02T15:34:35.024Z,14.93
2018-11-02T15:37:02.550Z,13.83
2018-11-02T15:39:30.112Z,14.77
2018-11-02T15:41:58.327Z,12.70
2018-11-02T15:44:25.953Z,12.90
2018-11-02T15:46:53.445Z,12.40
2018-11-02T15:49:21.062Z,12.20
2018-11-02T15:51:48.946Z,15.83
2018-11-02T15:54:16.502Z,13.23
2018-11-02T15:56:44.088Z,12.80
2018-11-02T15:59:11.657Z,12.63
2018-11-02T16:01:39.262Z,12.57
2018-11-02T16:04:06.827Z,12.47
2018-11-02T16:06:34.395Z,12.90
2018-11-02T16:09:02.001Z,12.30
2018-11-02T16:11:29.568Z,13.23
2018-11-02T16:13:57.140Z,16.12
2018-11-02T16:16:25.988Z,13.07
2018-11-02T16:18:53.549Z,13.50
2018-11-02T16:21:21.122Z,13.80
2018-11-02T16:23:48.719Z,13.80
2018-11-02T16:26:17.091Z,13.33
2018-11-02T16:28:45.229Z,12.07
2018-11-02T16:31:12.786Z,12.77
2018-11-02T16:33:40.356Z,13.03
2018-11-02T16:36:08.779Z,13.23
2018-11-02T16:38:37.111Z,11.87
2018-11-02T16:41:04.689Z,12.67
2018-11-02T16:43:32.303Z,13.10
2018-11-02T16:46:00.613Z,16.42
2018-11-02T16:48:28.950Z,12.77
2018-11-02T16:50:57.277Z,12.53
2018-11-02T16:53:24.846Z,11.53
2018-11-02T16:55:52.910Z,11.20
2018-11-02T16:58:20.494Z,12.30
2018-11-02T17:00:48.038Z,11.83
2018-11-02T17:03:15.613Z,11.17
2018-11-02T17:05:43.229Z,11.23
2018-11-02T17:08:10.994Z,11.47
2018-11-02T17:10:39.301Z,11.30
2018-11-02T17:13:06.868Z,10.97
2018-11-02T17:15:35.452Z,11.67
2018-11-02T17:18:03.045Z,12.00
2018-11-02T17:20:30.578Z,11.40
2018-11-02T17:22:58.166Z,13.13
2018-11-02T17:25:25.720Z,15.53
2018-11-02T17:27:53.871Z,12.73
2018-11-02T17:30:21.731Z,12.10
2018-11-02T17:32:49.290Z,12.80
2018-11-02T17:35:16.922Z,14.73
2018-11-02T17:37:45.230Z,12.20
2018-11-02T17:40:12.887Z,12.20
2018-11-02T17:42:40.493Z,13.43
2018-11-02T17:45:08.047Z,12.97
2018-11-02T17:47:35.640Z,12.70
2018-11-02T17:50:03.214Z,17.50
2018-11-02T17:52:30.789Z,19.45
2018-11-02T17:54:58.340Z,14.53
2018-11-02T17:57:26.413Z,15.10
2018-11-02T17:59:53.980Z,15.23
2018-11-02T18:02:21.535Z,13.40
2018-11-02T18:04:49.425Z,11.77
2018-11-02T18:07:16.981Z,12.93
2018-11-02T18:09:44.539Z,17.00
2018-11-02T18:12:12.206Z,18.40
2018-11-02T18:14:39.826Z,19.20
2018-11-02T18:17:08.049Z,12.27
2018-11-02T18:19:35.668Z,15.67
2018-11-02T18:22:03.621Z,15.40
2018-11-02T18:24:31.265Z,14.73
2018-11-02T18:26:59.220Z,13.23
2018-11-02T18:29:26.788Z,18.87
2018-11-02T18:31:54.352Z,19.30
2018-11-02T18:34:21.944Z,25.13
2018-11-02T18:36:50.279Z,20.43
2018-11-02T18:39:17.885Z,16.73
2018-11-02T18:41:45.446Z,15.67
2018-11-02T18:44:13.769Z,11.90
2018-11-02T18:46:41.369Z,11.53
2018-11-02T18:49:08.930Z,11.37
2018-11-02T18:51:36.502Z,13.63
2018-11-02T18:54:04.088Z,16.27
2018-11-02T18:56:31.651Z,17.00
2018-11-02T18:59:00.490Z,16.97
2018-11-02T19:01:28.049Z,14.67
2018-11-02T19:03:55.615Z,13.47
2018-11-02T19:06:23.381Z,13.27
2018-11-02T19:08:50.925Z,21.12
2018-11-02T19:11:18.505Z,25.23
2018-11-02T19:13:46.149Z,26.47
2018-11-02T19:16:13.718Z,24.60
2018-11-02T19:18:41.280Z,19.07
2018-11-02T19:21:09.288Z,22.53
2018-11-02T19:23:36.823Z,21.37
2018-11-02T19:26:04.384Z,26.43
2018-11-02T19:28:31.996Z,28.67
2018-11-02T19:30:59.557Z,28.52
2018-11-02T19:33:27.373Z,24.53
2018-11-02T19:35:55.061Z,23.03
2018-11-02T19:38:22.558Z,18.50
2018-11-02T19:40:50.113Z,20.40
2018-11-02T19:43:17.803Z,23.43
2018-11-02T19:45:45.396Z,23.33
2018-11-02T19:48:12.923Z,17.63
2018-11-02T19:50:40.717Z,17.50
2018-11-02T19:53:08.153Z,12.53
2018-11-02T19:55:35.720Z,13.27
2018-11-02T19:58:03.325Z,14.67
2018-11-02T20:00:31.687Z,16.63
2018-11-02T20:02:59.256Z,15.57
2018-11-02T20:05:27.189Z,18.17
2018-11-02T20:07:54.755Z,15.67
2018-11-02T20:10:22.315Z,15.10
2018-11-02T20:12:49.902Z,18.47
2018-11-02T20:15:18.048Z,17.20
2018-11-02T20:17:45.735Z,19.83
2018-11-02T20:20:13.233Z,17.10
2018-11-02T20:22:40.800Z,16.93
2018-11-02T20:25:09.319Z,16.17
2018-11-02T20:27:36.892Z,17.17
2018-11-02T20:30:04.456Z,17.37
2018-11-02T20:32:32.211Z,18.83
2018-11-02T20:34:59.637Z,16.97
2018-11-02T20:37:27.199Z,19.23
2018-11-02T20:39:55.201Z,16.67
2018-11-02T20:42:22.762Z,16.27
2018-11-02T20:44:50.327Z,17.13
2018-11-02T20:47:17.932Z,16.93
2018-11-02T20:49:46.274Z,18.67
2018-11-02T20:52:13.834Z,19.33
2018-11-02T20:54:41.558Z,20.63
2018-11-02T20:57:09.119Z,28.30
2018-11-02T20:59:36.678Z,23.93
2018-11-02T21:02:05.198Z,26.47
2018-11-02T21:04:32.750Z,22.17
2018-11-02T21:07:00.318Z,23.13
2018-11-02T21:09:28.116Z,26.00
2018-11-02T21:11:55.499Z,20.23
2018-11-02T21:14:23.121Z,23.17
2018-11-02T21:16:50.706Z,20.03
2018-11-02T21:19:18.228Z,20.90
2018-11-02T21:21:46.617Z,21.47
2018-11-02T21:24:14.171Z,23.17
2018-11-02T21:26:41.741Z,23.53
2018-11-02T21:29:09.322Z,22.70
2018-11-02T21:31:36.879Z,21.37
2018-11-02T21:34:04.531Z,17.50
2018-11-02T21:36:32.059Z,16.40
2018-11-02T21:38:59.614Z,21.83
2018-11-02T21:41:27.263Z,16.90
2018-11-02T21:43:54.811Z,19.70
2018-11-02T21:46:22.371Z,17.93
2018-11-02T21:48:49.960Z,18.03
2018-11-02T21:51:17.524Z,20.87
2018-11-02T21:53:45.097Z,20.73
2018-11-02T21:56:12.697Z,23.33
2018-11-02T21:58:40.282Z,23.03
2018-11-02T22:01:07.825Z,19.97
2018-11-02T22:03:35.410Z,18.07
2018-11-02T22:06:03.046Z,21.97
2018-11-02T22:08:30.593Z,23.53
2018-11-02T22:10:58.164Z,22.70
2018-11-02T22:13:25.725Z,22.80
2018-11-02T22:15:53.336Z,23.20
2018-11-02T22:18:20.893Z,21.00
2018-11-02T22:20:48.456Z,20.50
2018-11-02T22:23:16.056Z,21.80
2018-11-02T22:25:43.622Z,18.53
2018-11-02T22:28:11.185Z,20.70
2018-11-02T22:30:38.805Z,12.77
2018-11-02T22:33:07.107Z,13.77
2018-11-02T22:35:34.667Z,13.93
2018-11-02T22:38:02.330Z,12.93
2018-11-02T22:40:29.851Z,13.37
2018-11-02T22:42:57.412Z,15.83
2018-11-02T22:45:25.008Z,14.57
2018-11-02T22:47:52.563Z,19.07
2018-11-02T22:50:20.197Z,18.23
2018-11-02T22:52:47.780Z,16.37
2018-11-02T22:55:15.346Z,20.97
2018-11-02T22:57:42.940Z,17.93
2018-11-02T23:00:10.507Z,16.17
2018-11-02T23:02:38.066Z,17.50
2018-11-02T23:05:05.671Z,22.40
2018-11-02T23:07:33.247Z,22.40
2018-11-02T23:10:00.823Z,19.33
2018-11-02T23:12:28.445Z,18.67
2018-11-02T23:14:56.007Z,21.93
2018-11-02T23:17:23.570Z,18.87
2018-11-02T23:19:51.161Z,18.87
2018-11-02T23:22:19.342Z,15.00
2018-11-02T23:24:46.909Z,15.33
2018-11-02T23:27:14.473Z,21.87
2018-11-02T23:29:42.154Z,20.20
2018-11-02T23:32:09.635Z,18.57
2018-11-02T23:34:37.964Z,18.87
2018-11-02T23:37:05.547Z,18.33
2018-11-02T23:39:33.165Z,20.73
2018-11-02T23:42:00.726Z,15.63
2018-11-02T23:44:28.286Z,22.03
2018-11-02T23:46:55.883Z,18.27
2018-11-02T23:49:23.453Z,20.43
2018-11-02T23:51:51.021Z,19.10
2018-11-02T23:54:18.617Z,14.90
2018-11-02T23:56:46.187Z,29.43
2018-11-02T23:59:13.754Z,26.97
